Time;durP1;ratioP1;P1;durP2;ratioP2;P2;SDS_P1;SDS_P2;PMS_P1;PMS_P2;Temp;Humidity;BMP_temperature;BMP_pressure;BME280_temperature;BME280_humidity;BME280_pressure;Samples;Min_cycle;Max_cycle;Signal;HPM_P1;HPM_P2
2022/10/31 00:08:30;;;;;;;11.10;1.20;;;11.10;94.20;;;;;;21062584;28;20085;-62
2022/10/31 00:18:32;;;;;;;7.47;1.17;;;10.90;94.40;;;;;;21044181;28;20031;-61
2022/10/31 00:28:35;;;;;;;7.95;1.70;;;11.00;94.20;;;;;;21061701;28;20086;-63
2022/10/31 00:38:37;;;;;;;10.15;1.23;;;11.00;94.40;;;;;;21044072;28;20082;-62
2022/10/31 00:48:40;;;;;;;5.68;0.90;;;10.90;94.90;;;;;;20981540;28;20067;-57
2022/10/31 00:58:43;;;;;;;9.18;0.80;;;10.80;94.10;;;;;;20983027;28;20094;-64
2022/10/31 01:08:47;;;;;;;8.15;0.88;;;11.00;93.60;;;;;;20980004;28;20376;-64
2022/10/31 01:18:51;;;;;;;9.65;1.10;;;10.90;94.20;;;;;;20993594;28;20036;-60
2022/10/31 01:28:58;;;;;;;10.40;1.30;;;10.90;93.90;;;;;;20982057;28;20032;-61
2022/10/31 01:39:09;;;;;;;10.48;1.33;;;10.90;94.30;;;;;;20961103;28;20037;-60
2022/10/31 01:49:30;;;;;;;10.75;1.48;;;10.70;94.10;;;;;;20984014;28;20555;-60
2022/10/31 01:59:40;;;;;;;5.00;1.20;;;10.90;94.80;;;;;;20984280;28;20386;-58
2022/10/31 02:09:46;;;;;;;5.15;0.90;;;10.90;94.80;;;;;;20978971;28;20490;-62
2022/10/31 02:20:00;;;;;;;6.20;0.70;;;10.90;93.80;;;;;;20983787;28;20036;-58
2022/10/31 02:30:23;;;;;;;5.85;0.63;;;10.90;93.80;;;;;;20966526;28;20366;-65
2022/10/31 02:40:35;;;;;;;6.38;0.70;;;10.90;92.90;;;;;;20981592;28;20033;-61
2022/10/31 02:51:01;;;;;;;;;;;10.90;92.90;;;;;;20985960;28;20049;-65
2022/10/31 03:01:26;;;;;;;3.33;0.88;;;10.80;93.20;;;;;;20982137;28;19916;-65
2022/10/31 03:11:42;;;;;;;6.78;0.68;;;10.80;92.60;;;;;;20998579;28;20481;-60
2022/10/31 03:22:14;;;;;;;7.32;0.95;;;10.70;93.50;;;;;;20980776;28;20040;-60
2022/10/31 03:32:23;;;;;;;5.85;0.80;;;10.60;93.70;;;;;;21001318;28;20092;-63
2022/10/31 03:42:29;;;;;;;;;;;10.50;93.30;;;;;;20972944;28;20036;-58
2022/10/31 03:52:39;;;;;;;5.72;1.20;;;10.70;93.20;;;;;;20991425;28;19924;-57
2022/10/31 04:03:11;;;;;;;9.23;1.48;;;10.60;93.80;;;;;;20982364;28;20028;-62
2022/10/31 04:13:25;;;;;;;4.90;1.20;;;10.60;94.40;;;;;;20791381;28;20085;-63
2022/10/31 04:23:37;;;;;;;8.57;1.37;;;10.50;94.70;;;;;;20801889;28;20117;-63
2022/10/31 04:34:05;;;;;;;10.10;1.33;;;10.40;94.50;;;;;;20805342;28;20041;-57
2022/10/31 04:44:09;;;;;;;10.10;1.60;;;10.30;95.80;;;;;;20951166;28;20063;-58
2022/10/31 04:54:12;;;;;;;11.57;1.08;;;10.20;95.20;;;;;;20983847;28;20093;-58
2022/10/31 05:04:20;;;;;;;8.80;1.00;;;10.30;94.90;;;;;;20992929;28;20087;-58
2022/10/31 05:14:23;;;;;;;7.80;1.00;;;10.40;94.70;;;;;;20988647;28;20040;-63
2022/10/31 05:24:52;;;;;;;9.35;1.40;;;10.30;94.60;;;;;;20999986;28;20028;-63
2022/10/31 05:34:55;;;;;;;9.93;1.27;;;10.40;94.50;;;;;;20976970;28;20032;-63
2022/10/31 05:45:27;;;;;;;10.13;1.60;;;10.30;95.10;;;;;;20975263;28;20056;-63
2022/10/31 05:55:35;;;;;;;8.43;1.40;;;10.20;96.00;;;;;;20982099;28;20033;-59
2022/10/31 06:05:46;;;;;;;10.15;1.27;;;10.30;95.60;;;;;;20974034;28;20568;-58
2022/10/31 06:15:50;;;;;;;11.50;1.30;;;10.30;95.60;;;;;;20983710;28;20036;-58
2022/10/31 06:25:57;;;;;;;10.43;1.50;;;10.50;95.70;;;;;;20971618;28;20468;-58
2022/10/31 06:35:59;;;;;;;15.07;1.30;;;10.50;95.90;;;;;;20990024;28;20032;-62
2022/10/31 06:46:04;;;;;;;9.35;1.52;;;10.60;96.40;;;;;;21000682;28;20501;-62
2022/10/31 06:56:26;;;;;;;7.55;1.40;;;10.80;96.40;;;;;;20985924;28;20036;-56
2022/10/31 07:06:32;;;;;;;10.88;1.35;;;10.90;97.10;;;;;;20999259;28;20071;-61
2022/10/31 07:16:34;;;;;;;9.32;1.42;;;11.10;96.30;;;;;;20981949;28;20079;-60
2022/10/31 07:26:42;;;;;;;10.65;1.40;;;12.00;95.40;;;;;;20983336;28;20033;-60
2022/10/31 07:36:45;;;;;;;9.70;2.17;;;12.90;93.70;;;;;;21006162;28;20411;-53
2022/10/31 07:46:49;;;;;;;8.40;1.40;;;13.90;93.80;;;;;;21028293;28;20542;-57
2022/10/31 07:57:21;;;;;;;7.72;1.30;;;14.90;94.00;;;;;;20819351;28;20034;-58
2022/10/31 08:07:25;;;;;;;8.63;1.45;;;16.10;93.10;;;;;;20836650;28;20040;-52
2022/10/31 08:17:36;;;;;;;13.73;1.80;;;17.20;92.70;;;;;;20886637;28;20045;-52
2022/10/31 08:27:40;;;;;;;9.98;1.60;;;18.20;91.60;;;;;;20880020;28;20043;-58
2022/10/31 08:37:56;;;;;;;11.30;1.70;;;19.10;91.30;;;;;;21035899;28;20036;-56
2022/10/31 08:48:05;;;;;;;14.38;1.90;;;19.80;87.80;;;;;;21059848;28;20574;-53
2022/10/31 08:58:19;;;;;;;11.98;1.70;;;20.40;84.40;;;;;;21033423;28;20063;-58
2022/10/31 09:08:29;;;;;;;7.15;1.52;;;20.70;85.80;;;;;;21018945;28;20106;-54
2022/10/31 09:18:31;;;;;;;13.88;1.75;;;21.00;85.80;;;;;;21055719;28;20554;-55
2022/10/31 09:28:36;;;;;;;10.63;1.80;;;21.30;80.90;;;;;;21043583;28;20036;-55
2022/10/31 09:38:49;;;;;;;7.97;1.60;;;21.30;79.90;;;;;;21026420;28;20082;-58
2022/10/31 09:49:21;;;;;;;7.10;1.38;;;21.20;83.10;;;;;;21037603;28;20495;-58
2022/10/31 09:59:37;;;;;;;6.70;1.33;;;21.50;83.20;;;;;;21043076;28;20044;-58
2022/10/31 10:09:40;;;;;;;9.10;1.42;;;21.50;80.90;;;;;;21023449;28;20032;-59
2022/10/31 10:20:23;;;;;;;7.72;1.30;;;21.20;86.20;;;;;;21034751;28;20036;-58
2022/10/31 10:30:32;;;;;;;6.22;1.27;;;21.40;86.20;;;;;;21052551;28;20036;-58
2022/10/31 10:40:35;;;;;;;8.27;1.67;;;21.40;83.10;;;;;;21022559;28;20519;-57
2022/10/31 10:50:44;;;;;;;4.85;1.48;;;21.80;82.50;;;;;;21030766;28;20093;-57
2022/10/31 11:00:49;;;;;;;8.35;1.45;;;22.10;79.40;;;;;;21045805;28;20032;-58
2022/10/31 11:11:11;;;;;;;10.82;1.70;;;22.20;82.20;;;;;;21039097;28;20036;-59
2022/10/31 11:21:27;;;;;;;6.13;1.30;;;22.00;85.80;;;;;;21046765;28;20090;-59
2022/10/31 11:31:32;;;;;;;6.43;1.42;;;21.80;84.90;;;;;;21064579;28;20032;-59
2022/10/31 11:41:42;;;;;;;9.80;1.88;;;21.60;83.00;;;;;;21022255;28;20654;-59
2022/10/31 11:51:49;;;;;;;6.20;1.80;;;21.70;85.20;;;;;;21043626;28;20052;-59
2022/10/31 12:01:53;;;;;;;6.85;1.67;;;21.70;85.90;;;;;;21051388;28;20093;-58
2022/10/31 12:12:27;;;;;;;6.88;1.33;;;21.30;88.30;;;;;;21012045;28;20044;-59
2022/10/31 12:22:52;;;;;;;9.43;1.73;;;21.40;87.20;;;;;;21049532;28;20040;-59
2022/10/31 12:33:13;;;;;;;5.07;1.35;;;21.40;88.10;;;;;;21067609;28;20135;-59
2022/10/31 12:43:54;;;;;;;7.93;1.30;;;21.10;84.20;;;;;;21030568;28;20032;-59
2022/10/31 12:54:31;;;;;;;7.53;1.23;;;21.10;88.70;;;;;;21020888;28;20090;-59
2022/10/31 13:04:38;;;;;;;9.75;1.65;;;21.20;81.10;;;;;;20735150;28;20061;-59
2022/10/31 13:14:54;;;;;;;7.68;0.90;;;21.00;83.30;;;;;;20734901;28;20046;-59
2022/10/31 13:25:13;;;;;;;8.00;1.08;;;20.60;84.70;;;;;;20733984;28;20120;-59
2022/10/31 13:35:29;;;;;;;7.60;1.10;;;20.00;83.60;;;;;;20764872;28;20044;-59
2022/10/31 13:45:32;;;;;;;4.68;1.20;;;19.20;83.50;;;;;;21055247;28;20044;-65
2022/10/31 13:55:45;;;;;;;7.75;1.30;;;18.40;82.90;;;;;;21050571;28;20089;-64
2022/10/31 14:05:55;;;;;;;8.73;1.13;;;17.80;87.80;;;;;;21024928;28;20041;-59
2022/10/31 14:16:01;;;;;;;7.53;1.40;;;17.40;89.40;;;;;;21036696;28;20097;-64
2022/10/31 14:26:16;;;;;;;6.65;1.30;;;17.20;89.40;;;;;;21010635;28;20446;-58
2022/10/31 14:36:34;;;;;;;7.55;1.40;;;16.90;90.40;;;;;;21040355;28;20032;-59
2022/10/31 14:46:58;;;;;;;8.77;1.63;;;16.60;91.20;;;;;;21034550;28;20176;-58
2022/10/31 14:57:14;;;;;;;8.02;1.35;;;15.90;92.20;;;;;;21048173;28;20036;-59
2022/10/31 15:07:26;;;;;;;7.22;1.20;;;15.10;95.00;;;;;;21038667;28;20048;-58
2022/10/31 15:17:28;;;;;;;5.65;1.05;;;14.60;94.00;;;;;;21041878;28;20066;-65
2022/10/31 15:27:33;;;;;;;7.18;1.30;;;14.20;93.20;;;;;;21044942;28;20032;-57
2022/10/31 15:37:35;;;;;;;4.97;0.88;;;13.70;94.70;;;;;;21047804;28;20036;-58
2022/10/31 15:47:39;;;;;;;11.35;0.90;;;13.00;95.70;;;;;;21039495;28;20040;-64
2022/10/31 15:57:52;;;;;;;5.32;0.80;;;12.30;96.50;;;;;;21034546;28;20098;-63
2022/10/31 16:07:55;;;;;;;3.90;0.90;;;11.70;96.80;;;;;;21038604;28;20077;-66
2022/10/31 16:17:57;;;;;;;8.82;0.95;;;11.20;96.90;;;;;;21047659;28;20032;-59
2022/10/31 16:28:05;;;;;;;6.55;1.00;;;10.90;97.80;;;;;;21040829;28;20097;-66
2022/10/31 16:38:09;;;;;;;11.32;1.10;;;10.50;97.70;;;;;;21043255;28;20040;-67
2022/10/31 16:48:15;;;;;;;6.65;1.13;;;10.40;98.10;;;;;;21043149;28;20035;-67
2022/10/31 16:58:33;;;;;;;8.57;1.00;;;10.10;98.70;;;;;;21027586;28;20044;-67
2022/10/31 17:08:36;;;;;;;5.47;0.73;;;10.00;97.20;;;;;;21038651;28;20064;-59
2022/10/31 17:18:38;;;;;;;3.00;0.50;;;10.10;97.60;;;;;;21057105;28;20040;-59
2022/10/31 17:28:41;;;;;;;4.28;0.70;;;9.90;97.20;;;;;;21052272;28;20028;-60
2022/10/31 17:38:44;;;;;;;5.13;0.70;;;9.80;97.00;;;;;;21027068;28;20547;-60
2022/10/31 17:48:46;;;;;;;2.25;0.60;;;9.80;97.50;;;;;;21048735;28;20105;-67
2022/10/31 17:58:49;;;;;;;6.35;0.57;;;9.70;97.60;;;;;;21033787;28;20044;-60
2022/10/31 18:08:54;;;;;;;5.20;0.63;;;9.70;97.60;;;;;;21025011;28;20032;-66
2022/10/31 18:19:00;;;;;;;5.00;0.90;;;9.60;97.90;;;;;;21037885;28;20085;-61
2022/10/31 18:29:03;;;;;;;6.75;0.65;;;9.70;97.20;;;;;;21023931;28;20478;-59
2022/10/31 18:39:06;;;;;;;6.35;0.95;;;9.80;97.40;;;;;;21027960;28;20105;-66
2022/10/31 18:49:09;;;;;;;4.45;0.75;;;9.70;98.00;;;;;;21068126;28;20052;-66
2022/10/31 18:59:12;;;;;;;3.58;0.70;;;9.50;97.90;;;;;;21042725;28;20389;-60
2022/10/31 19:09:15;;;;;;;6.32;0.73;;;9.50;98.50;;;;;;21053140;28;20040;-59
2022/10/31 19:19:19;;;;;;;4.75;0.88;;;9.40;98.80;;;;;;21041152;28;20066;-66
2022/10/31 19:29:21;;;;;;;5.47;1.02;;;9.40;98.80;;;;;;21046900;28;20086;-60
2022/10/31 19:39:24;;;;;;;4.63;1.23;;;9.20;99.20;;;;;;21031894;28;20024;-60
2022/10/31 19:49:27;;;;;;;6.53;0.70;;;8.90;99.70;;;;;;21050902;28;20103;-60
2022/10/31 19:59:30;;;;;;;4.65;0.80;;;9.00;99.80;;;;;;21046723;28;20070;-66
2022/10/31 20:09:35;;;;;;;4.88;0.82;;;9.00;99.90;;;;;;21033889;28;20032;-65
2022/10/31 20:19:40;;;;;;;8.52;0.90;;;9.00;99.90;;;;;;21066572;28;20032;-59
2022/10/31 20:29:43;;;;;;;7.85;0.90;;;9.00;99.90;;;;;;21045647;28;20067;-60
2022/10/31 20:39:45;;;;;;;6.32;0.90;;;9.00;99.90;;;;;;21048549;28;20039;-60
2022/10/31 20:49:48;;;;;;;8.20;0.85;;;9.10;99.90;;;;;;21022228;28;20485;-60
2022/10/31 20:59:51;;;;;;;5.78;0.82;;;8.90;99.90;;;;;;21042505;28;20040;-66
2022/10/31 21:09:54;;;;;;;5.38;0.80;;;8.80;99.90;;;;;;21003961;28;20040;-61
2022/10/31 21:19:57;;;;;;;4.63;1.00;;;8.70;99.90;;;;;;21041375;28;20032;-60
2022/10/31 21:30:01;;;;;;;4.78;0.95;;;8.70;99.90;;;;;;21056037;28;20493;-61
2022/10/31 21:40:04;;;;;;;4.20;0.68;;;8.80;99.90;;;;;;21027118;28;20062;-66
2022/10/31 21:50:08;;;;;;;3.22;0.70;;;8.90;99.90;;;;;;21042555;28;20048;-59
2022/10/31 22:00:12;;;;;;;3.85;0.60;;;8.80;99.90;;;;;;21054427;28;20040;-60
2022/10/31 22:10:15;;;;;;;3.95;0.60;;;8.80;99.90;;;;;;21041398;28;20035;-65
2022/10/31 22:20:20;;;;;;;4.30;0.90;;;9.00;99.80;;;;;;21049383;28;20036;-66
2022/10/31 22:30:22;;;;;;;5.53;0.80;;;9.10;99.20;;;;;;21044510;28;20485;-60
2022/10/31 22:40:25;;;;;;;4.10;0.70;;;9.10;99.10;;;;;;21040285;28;20036;-66
2022/10/31 22:50:27;;;;;;;4.50;0.70;;;9.00;99.60;;;;;;21047849;28;20044;-60
2022/10/31 23:00:32;;;;;;;6.97;0.80;;;9.00;99.80;;;;;;21037205;28;20078;-60
2022/10/31 23:10:40;;;;;;;5.53;0.80;;;9.10;99.70;;;;;;21022687;28;20501;-66
2022/10/31 23:20:42;;;;;;;2.95;1.00;;;9.20;99.90;;;;;;21051357;28;20040;-65
2022/10/31 23:30:45;;;;;;;3.40;0.70;;;9.30;99.90;;;;;;21066103;28;20385;-59
2022/10/31 23:40:48;;;;;;;4.07;0.68;;;9.20;99.90;;;;;;21052974;28;20024;-60
2022/10/31 23:50:50;;;;;;;2.63;0.75;;;9.00;99.90;;;;;;21035257;28;20075;-60
